sensor_id;sensor_type;location;lat;lon;timestamp;pressure;altitude;pressure_sealevel;temperature;humidity
29909;BME280;36247;51.952;6.146;2024-03-17T00:00:55;102326.63;;;4.51;100.00
29909;BME280;36247;51.952;6.146;2024-03-17T00:03:20;102331.28;;;4.41;100.00
29909;BME280;36247;51.952;6.146;2024-03-17T00:05:46;102328.66;;;4.41;100.00
29909;BME280;36247;51.952;6.146;2024-03-17T00:08:11;102323.22;;;4.38;100.00
29909;BME280;36247;51.952;6.146;2024-03-17T00:10:36;102317.78;;;4.35;100.00
29909;BME280;36247;51.952;6.146;2024-03-17T00:13:02;102317.25;;;4.13;100.00
29909;BME280;36247;51.952;6.146;2024-03-17T00:15:28;102316.34;;;4.12;100.00
29909;BME280;36247;51.952;6.146;2024-03-17T00:17:53;102313.13;;;3.89;100.00
29909;BME280;36247;51.952;6.146;2024-03-17T00:20:19;102307.97;;;4.04;100.00
29909;BME280;36247;51.952;6.146;2024-03-17T00:22:47;102302.03;;;4.07;100.00
29909;BME280;36247;51.952;6.146;2024-03-17T00:25:12;102298.56;;;4.21;100.00
29909;BME280;36247;51.952;6.146;2024-03-17T00:27:38;102293.50;;;4.24;100.00
29909;BME280;36247;51.952;6.146;2024-03-17T00:30:07;102290.88;;;4.24;100.00
29909;BME280;36247;51.952;6.146;2024-03-17T00:32:41;102292.72;;;4.26;100.00
29909;BME280;36247;51.952;6.146;2024-03-17T00:35:08;102282.50;;;4.30;100.00
29909;BME280;36247;51.952;6.146;2024-03-17T00:37:34;102290.13;;;4.40;100.00
29909;BME280;36247;51.952;6.146;2024-03-17T00:40:03;102288.69;;;4.46;100.00
29909;BME280;36247;51.952;6.146;2024-03-17T00:42:29;102293.94;;;4.46;100.00
29909;BME280;36247;51.952;6.146;2024-03-17T00:44:55;102290.50;;;4.47;100.00
29909;BME280;36247;51.952;6.146;2024-03-17T00:47:21;102288.31;;;4.39;100.00
29909;BME280;36247;51.952;6.146;2024-03-17T00:49:46;102286.03;;;4.31;100.00
29909;BME280;36247;51.952;6.146;2024-03-17T00:52:12;102288.31;;;4.39;100.00
29909;BME280;36247;51.952;6.146;2024-03-17T00:54:37;102286.34;;;4.22;100.00
29909;BME280;36247;51.952;6.146;2024-03-17T00:57:03;102280.41;;;4.24;100.00
29909;BME280;36247;51.952;6.146;2024-03-17T00:59:28;102283.53;;;4.19;100.00
29909;BME280;36247;51.952;6.146;2024-03-17T01:01:54;102285.44;;;4.21;100.00
29909;BME280;36247;51.952;6.146;2024-03-17T01:04:19;102267.28;;;4.24;100.00
29909;BME280;36247;51.952;6.146;2024-03-17T01:06:44;102275.47;;;4.16;100.00
29909;BME280;36247;51.952;6.146;2024-03-17T01:09:10;102267.88;;;4.20;100.00
29909;BME280;36247;51.952;6.146;2024-03-17T01:11:35;102270.59;;;4.22;100.00
29909;BME280;36247;51.952;6.146;2024-03-17T01:14:00;102275.66;;;4.19;100.00
29909;BME280;36247;51.952;6.146;2024-03-17T01:16:26;102273.66;;;4.15;100.00
29909;BME280;36247;51.952;6.146;2024-03-17T01:18:52;102265.44;;;4.23;100.00
29909;BME280;36247;51.952;6.146;2024-03-17T01:21:17;102264.19;;;4.17;100.00
29909;BME280;36247;51.952;6.146;2024-03-17T01:23:42;102261.97;;;4.10;100.00
29909;BME280;36247;51.952;6.146;2024-03-17T01:26:08;102258.78;;;4.00;100.00
29909;BME280;36247;51.952;6.146;2024-03-17T01:28:33;102267.94;;;3.94;100.00
29909;BME280;36247;51.952;6.146;2024-03-17T01:30:59;102260.56;;;4.01;100.00
29909;BME280;36247;51.952;6.146;2024-03-17T01:33:24;102262.59;;;4.05;100.00
29909;BME280;36247;51.952;6.146;2024-03-17T01:35:50;102265.97;;;4.18;100.00
29909;BME280;36247;51.952;6.146;2024-03-17T01:38:15;102269.13;;;4.12;100.00
29909;BME280;36247;51.952;6.146;2024-03-17T01:40:41;102265.25;;;4.20;100.00
29909;BME280;36247;51.952;6.146;2024-03-17T01:43:10;102260.03;;;4.20;100.00
29909;BME280;36247;51.952;6.146;2024-03-17T01:45:35;102256.13;;;4.14;100.00
29909;BME280;36247;51.952;6.146;2024-03-17T01:48:02;102253.72;;;4.03;100.00
29909;BME280;36247;51.952;6.146;2024-03-17T01:50:37;102248.34;;;3.74;100.00
29909;BME280;36247;51.952;6.146;2024-03-17T01:53:04;102244.78;;;3.86;100.00
29909;BME280;36247;51.952;6.146;2024-03-17T01:55:36;102244.69;;;3.71;100.00
29909;BME280;36247;51.952;6.146;2024-03-17T01:58:03;102242.00;;;3.57;100.00
29909;BME280;36247;51.952;6.146;2024-03-17T02:00:29;102241.19;;;3.58;100.00
29909;BME280;36247;51.952;6.146;2024-03-17T02:02:56;102239.91;;;3.64;100.00
29909;BME280;36247;51.952;6.146;2024-03-17T02:05:21;102237.78;;;3.59;100.00
29909;BME280;36247;51.952;6.146;2024-03-17T02:07:47;102240.88;;;3.66;100.00
29909;BME280;36247;51.952;6.146;2024-03-17T02:10:13;102241.59;;;3.64;100.00
29909;BME280;36247;51.952;6.146;2024-03-17T02:12:40;102228.88;;;3.70;100.00
29909;BME280;36247;51.952;6.146;2024-03-17T02:15:06;102228.00;;;3.56;100.00
29909;BME280;36247;51.952;6.146;2024-03-17T02:17:32;102227.78;;;3.66;100.00
29909;BME280;36247;51.952;6.146;2024-03-17T02:19:58;102219.31;;;3.70;100.00
29909;BME280;36247;51.952;6.146;2024-03-17T02:22:25;102222.94;;;3.59;100.00
29909;BME280;36247;51.952;6.146;2024-03-17T02:24:50;102221.06;;;3.85;100.00
29909;BME280;36247;51.952;6.146;2024-03-17T02:27:16;102222.78;;;3.98;100.00
29909;BME280;36247;51.952;6.146;2024-03-17T02:29:41;102224.03;;;4.04;100.00
29909;BME280;36247;51.952;6.146;2024-03-17T02:32:07;102225.41;;;3.98;100.00
29909;BME280;36247;51.952;6.146;2024-03-17T02:34:36;102228.56;;;3.79;100.00
29909;BME280;36247;51.952;6.146;2024-03-17T02:37:03;102226.13;;;3.82;100.00
29909;BME280;36247;51.952;6.146;2024-03-17T02:39:30;102219.59;;;3.75;100.00
29909;BME280;36247;51.952;6.146;2024-03-17T02:42:09;102218.94;;;3.64;100.00
29909;BME280;36247;51.952;6.146;2024-03-17T02:44:35;102220.31;;;3.59;100.00
29909;BME280;36247;51.952;6.146;2024-03-17T02:47:02;102215.41;;;3.50;100.00
29909;BME280;36247;51.952;6.146;2024-03-17T02:49:30;102219.53;;;3.60;100.00
29909;BME280;36247;51.952;6.146;2024-03-17T02:52:06;102211.75;;;3.75;100.00
29909;BME280;36247;51.952;6.146;2024-03-17T02:54:36;102222.81;;;3.84;100.00
29909;BME280;36247;51.952;6.146;2024-03-17T02:57:05;102210.97;;;3.91;100.00
29909;BME280;36247;51.952;6.146;2024-03-17T02:59:34;102213.56;;;4.04;100.00
29909;BME280;36247;51.952;6.146;2024-03-17T03:01:59;102209.53;;;4.10;100.00
29909;BME280;36247;51.952;6.146;2024-03-17T03:04:26;102207.38;;;4.17;100.00
29909;BME280;36247;51.952;6.146;2024-03-17T03:06:51;102204.22;;;4.23;100.00
29909;BME280;36247;51.952;6.146;2024-03-17T03:09:17;102200.25;;;4.30;100.00
29909;BME280;36247;51.952;6.146;2024-03-17T03:11:50;102199.63;;;4.34;100.00
29909;BME280;36247;51.952;6.146;2024-03-17T03:14:17;102209.66;;;4.26;100.00
29909;BME280;36247;51.952;6.146;2024-03-17T03:16:42;102203.06;;;4.33;100.00
29909;BME280;36247;51.952;6.146;2024-03-17T03:19:08;102204.84;;;4.19;100.00
29909;BME280;36247;51.952;6.146;2024-03-17T03:21:34;102200.13;;;4.13;100.00
29909;BME280;36247;51.952;6.146;2024-03-17T03:23:59;102201.56;;;4.08;100.00
29909;BME280;36247;51.952;6.146;2024-03-17T03:26:25;102203.06;;;4.04;100.00
29909;BME280;36247;51.952;6.146;2024-03-17T03:28:50;102205.78;;;4.06;100.00
29909;BME280;36247;51.952;6.146;2024-03-17T03:31:15;102199.59;;;4.19;100.00
29909;BME280;36247;51.952;6.146;2024-03-17T03:33:42;102210.19;;;4.20;100.00
29909;BME280;36247;51.952;6.146;2024-03-17T03:36:11;102206.03;;;4.24;100.00
29909;BME280;36247;51.952;6.146;2024-03-17T03:38:37;102211.06;;;4.21;100.00
29909;BME280;36247;51.952;6.146;2024-03-17T03:41:10;102214.47;;;4.05;100.00
29909;BME280;36247;51.952;6.146;2024-03-17T03:43:37;102209.47;;;4.23;100.00
29909;BME280;36247;51.952;6.146;2024-03-17T03:46:03;102200.72;;;4.22;100.00
29909;BME280;36247;51.952;6.146;2024-03-17T03:48:29;102204.59;;;4.29;100.00
29909;BME280;36247;51.952;6.146;2024-03-17T03:50:54;102208.22;;;4.31;100.00
29909;BME280;36247;51.952;6.146;2024-03-17T03:53:20;102208.47;;;4.36;100.00
29909;BME280;36247;51.952;6.146;2024-03-17T03:55:46;102206.78;;;4.36;100.00
29909;BME280;36247;51.952;6.146;2024-03-17T03:58:12;102197.75;;;4.46;100.00
29909;BME280;36247;51.952;6.146;2024-03-17T04:00:40;102197.56;;;4.43;100.00
29909;BME280;36247;51.952;6.146;2024-03-17T04:03:06;102196.66;;;4.43;100.00
29909;BME280;36247;51.952;6.146;2024-03-17T04:05:32;102191.34;;;4.56;100.00
29909;BME280;36247;51.952;6.146;2024-03-17T04:07:58;102189.88;;;4.76;100.00
29909;BME280;36247;51.952;6.146;2024-03-17T04:10:23;102182.19;;;4.79;100.00
29909;BME280;36247;51.952;6.146;2024-03-17T04:12:50;102178.94;;;4.83;100.00
29909;BME280;36247;51.952;6.146;2024-03-17T04:15:16;102182.66;;;4.87;100.00
29909;BME280;36247;51.952;6.146;2024-03-17T04:17:41;102178.56;;;4.92;100.00
29909;BME280;36247;51.952;6.146;2024-03-17T04:20:10;102175.31;;;4.96;100.00
29909;BME280;36247;51.952;6.146;2024-03-17T04:22:39;102172.97;;;5.01;100.00
29909;BME280;36247;51.952;6.146;2024-03-17T04:25:04;102168.84;;;5.06;100.00
29909;BME280;36247;51.952;6.146;2024-03-17T04:27:30;102160.25;;;5.08;100.00
29909;BME280;36247;51.952;6.146;2024-03-17T04:29:58;102155.47;;;5.01;100.00
29909;BME280;36247;51.952;6.146;2024-03-17T04:32:24;102154.13;;;5.08;100.00
29909;BME280;36247;51.952;6.146;2024-03-17T04:34:50;102149.91;;;5.11;100.00
29909;BME280;36247;51.952;6.146;2024-03-17T04:37:15;102151.41;;;5.06;100.00
29909;BME280;36247;51.952;6.146;2024-03-17T04:39:43;102152.09;;;5.19;100.00
29909;BME280;36247;51.952;6.146;2024-03-17T04:42:09;102148.53;;;5.33;100.00
29909;BME280;36247;51.952;6.146;2024-03-17T04:44:34;102142.44;;;5.34;100.00
29909;BME280;36247;51.952;6.146;2024-03-17T04:47:00;102145.91;;;5.33;100.00
29909;BME280;36247;51.952;6.146;2024-03-17T04:49:25;102143.53;;;5.38;100.00
29909;BME280;36247;51.952;6.146;2024-03-17T04:51:51;102139.50;;;5.44;100.00
29909;BME280;36247;51.952;6.146;2024-03-17T04:54:16;102135.25;;;5.46;100.00
29909;BME280;36247;51.952;6.146;2024-03-17T04:56:42;102139.50;;;5.44;100.00
29909;BME280;36247;51.952;6.146;2024-03-17T04:59:07;102129.16;;;5.47;100.00
29909;BME280;36247;51.952;6.146;2024-03-17T05:01:32;102132.78;;;5.50;100.00
29909;BME280;36247;51.952;6.146;2024-03-17T05:04:04;102128.19;;;5.45;100.00
29909;BME280;36247;51.952;6.146;2024-03-17T05:06:29;102124.38;;;5.40;100.00
29909;BME280;36247;51.952;6.146;2024-03-17T05:08:55;102132.09;;;5.37;100.00
29909;BME280;36247;51.952;6.146;2024-03-17T05:11:20;102126.19;;;5.41;100.00
29909;BME280;36247;51.952;6.146;2024-03-17T05:13:46;102124.06;;;5.51;100.00
29909;BME280;36247;51.952;6.146;2024-03-17T05:16:11;102123.50;;;5.56;100.00
29909;BME280;36247;51.952;6.146;2024-03-17T05:18:36;102113.72;;;5.54;100.00
29909;BME280;36247;51.952;6.146;2024-03-17T05:21:07;102124.50;;;5.58;100.00
29909;BME280;36247;51.952;6.146;2024-03-17T05:23:36;102118.66;;;5.47;100.00
29909;BME280;36247;51.952;6.146;2024-03-17T05:26:03;102111.94;;;5.69;100.00
29909;BME280;36247;51.952;6.146;2024-03-17T05:28:31;102115.72;;;5.74;100.00
29909;BME280;36247;51.952;6.146;2024-03-17T05:30:57;102121.13;;;5.94;100.00
29909;BME280;36247;51.952;6.146;2024-03-17T05:33:24;102121.97;;;5.93;100.00
29909;BME280;36247;51.952;6.146;2024-03-17T05:35:55;102125.66;;;5.96;100.00
29909;BME280;36247;51.952;6.146;2024-03-17T05:38:25;102135.31;;;6.12;100.00
29909;BME280;36247;51.952;6.146;2024-03-17T05:41:00;102136.44;;;6.17;100.00
29909;BME280;36247;51.952;6.146;2024-03-17T05:43:33;102138.28;;;6.18;100.00
29909;BME280;36247;51.952;6.146;2024-03-17T05:46:02;102134.31;;;6.10;100.00
29909;BME280;36247;51.952;6.146;2024-03-17T05:48:28;102132.38;;;6.06;100.00
29909;BME280;36247;51.952;6.146;2024-03-17T05:50:54;102137.56;;;6.05;100.00
29909;BME280;36247;51.952;6.146;2024-03-17T05:53:20;102135.25;;;6.11;100.00
29909;BME280;36247;51.952;6.146;2024-03-17T05:55:46;102137.63;;;6.06;100.00
29909;BME280;36247;51.952;6.146;2024-03-17T05:58:12;102139.41;;;6.07;100.00
29909;BME280;36247;51.952;6.146;2024-03-17T06:00:41;102141.13;;;6.23;100.00
29909;BME280;36247;51.952;6.146;2024-03-17T06:03:06;102137.78;;;6.26;100.00
29909;BME280;36247;51.952;6.146;2024-03-17T06:05:32;102136.91;;;6.27;100.00
29909;BME280;36247;51.952;6.146;2024-03-17T06:07:59;102136.03;;;6.26;100.00
29909;BME280;36247;51.952;6.146;2024-03-17T06:10:24;102136.28;;;6.31;100.00
29909;BME280;36247;51.952;6.146;2024-03-17T06:12:50;102132.59;;;6.27;100.00
29909;BME280;36247;51.952;6.146;2024-03-17T06:15:16;102119.28;;;6.08;100.00
29909;BME280;36247;51.952;6.146;2024-03-17T06:17:42;102131.19;;;6.01;100.00
29909;BME280;36247;51.952;6.146;2024-03-17T06:20:07;102119.88;;;6.02;100.00
29909;BME280;36247;51.952;6.146;2024-03-17T06:22:36;102112.44;;;5.95;100.00
29909;BME280;36247;51.952;6.146;2024-03-17T06:25:01;102121.13;;;5.94;100.00
29909;BME280;36247;51.952;6.146;2024-03-17T06:27:27;102114.56;;;5.86;100.00
29909;BME280;36247;51.952;6.146;2024-03-17T06:29:53;102113.94;;;5.90;100.00
29909;BME280;36247;51.952;6.146;2024-03-17T06:32:20;102110.06;;;5.99;100.00
29909;BME280;36247;51.952;6.146;2024-03-17T06:34:45;102126.34;;;6.09;100.00
29909;BME280;36247;51.952;6.146;2024-03-17T06:37:11;102121.84;;;6.06;100.00
29909;BME280;36247;51.952;6.146;2024-03-17T06:39:37;102121.31;;;6.13;100.00
29909;BME280;36247;51.952;6.146;2024-03-17T06:42:03;102123.22;;;6.16;100.00
29909;BME280;36247;51.952;6.146;2024-03-17T06:44:28;102119.44;;;6.11;100.00
29909;BME280;36247;51.952;6.146;2024-03-17T06:46:56;102121.00;;;6.07;100.00
29909;BME280;36247;51.952;6.146;2024-03-17T06:49:21;102110.59;;;6.27;100.00
29909;BME280;36247;51.952;6.146;2024-03-17T06:51:46;102112.75;;;6.34;100.00
29909;BME280;36247;51.952;6.146;2024-03-17T06:54:13;102116.75;;;6.44;100.00
29909;BME280;36247;51.952;6.146;2024-03-17T06:56:38;102107.03;;;6.43;100.00
29909;BME280;36247;51.952;6.146;2024-03-17T06:59:05;102104.78;;;6.50;100.00
29909;BME280;36247;51.952;6.146;2024-03-17T07:01:30;102094.06;;;6.64;100.00
29909;BME280;36247;51.952;6.146;2024-03-17T07:03:56;102102.81;;;6.81;100.00
29909;BME280;36247;51.952;6.146;2024-03-17T07:06:21;102089.16;;;6.89;100.00
29909;BME280;36247;51.952;6.146;2024-03-17T07:08:46;102081.03;;;7.03;100.00
29909;BME280;36247;51.952;6.146;2024-03-17T07:11:12;102074.09;;;7.23;100.00
29909;BME280;36247;51.952;6.146;2024-03-17T07:13:38;102078.44;;;7.40;100.00
29909;BME280;36247;51.952;6.146;2024-03-17T07:16:07;102089.06;;;7.62;100.00
29909;BME280;36247;51.952;6.146;2024-03-17T07:18:33;102083.09;;;7.85;100.00
29909;BME280;36247;51.952;6.146;2024-03-17T07:20:59;102086.94;;;8.13;100.00
29909;BME280;36247;51.952;6.146;2024-03-17T07:23:26;102093.75;;;8.27;100.00
29909;BME280;36247;51.952;6.146;2024-03-17T07:25:55;102093.91;;;8.52;100.00
29909;BME280;36247;51.952;6.146;2024-03-17T07:28:22;102098.19;;;8.69;100.00
29909;BME280;36247;51.952;6.146;2024-03-17T07:30:49;102098.38;;;9.17;100.00
29909;BME280;36247;51.952;6.146;2024-03-17T07:33:15;102099.16;;;9.38;100.00
29909;BME280;36247;51.952;6.146;2024-03-17T07:35:51;102102.53;;;9.33;100.00
29909;BME280;36247;51.952;6.146;2024-03-17T07:38:18;102104.44;;;9.60;100.00
29909;BME280;36247;51.952;6.146;2024-03-17T07:40:44;102101.38;;;9.49;100.00
29909;BME280;36247;51.952;6.146;2024-03-17T07:43:10;102101.47;;;9.30;100.00
29909;BME280;36247;51.952;6.146;2024-03-17T07:45:35;102098.00;;;9.08;100.00
29909;BME280;36247;51.952;6.146;2024-03-17T07:48:01;102084.84;;;9.10;100.00
29909;BME280;36247;51.952;6.146;2024-03-17T07:50:26;102095.06;;;9.23;100.00
29909;BME280;36247;51.952;6.146;2024-03-17T07:52:52;102098.72;;;9.27;100.00
29909;BME280;36247;51.952;6.146;2024-03-17T07:55:17;102108.53;;;9.29;100.00
29909;BME280;36247;51.952;6.146;2024-03-17T07:57:43;102110.16;;;9.26;100.00
29909;BME280;36247;51.952;6.146;2024-03-17T08:00:08;102126.91;;;9.26;100.00
29909;BME280;36247;51.952;6.146;2024-03-17T08:02:47;102116.22;;;9.46;100.00
29909;BME280;36247;51.952;6.146;2024-03-17T08:05:13;102122.22;;;9.42;100.00
29909;BME280;36247;51.952;6.146;2024-03-17T08:07:39;102120.06;;;9.54;100.00
29909;BME280;36247;51.952;6.146;2024-03-17T08:10:05;102112.50;;;9.63;100.00
29909;BME280;36247;51.952;6.146;2024-03-17T08:12:31;102107.97;;;9.61;100.00
29909;BME280;36247;51.952;6.146;2024-03-17T08:14:56;102111.34;;;10.03;100.00
29909;BME280;36247;51.952;6.146;2024-03-17T08:17:21;102108.50;;;10.23;100.00
29909;BME280;36247;51.952;6.146;2024-03-17T08:19:47;102118.06;;;10.19;100.00
29909;BME280;36247;51.952;6.146;2024-03-17T08:22:13;102112.09;;;10.25;100.00
29909;BME280;36247;51.952;6.146;2024-03-17T08:24:39;102113.41;;;10.36;100.00
29909;BME280;36247;51.952;6.146;2024-03-17T08:27:05;102114.56;;;10.45;100.00
29909;BME280;36247;51.952;6.146;2024-03-17T08:29:30;102105.84;;;10.74;100.00
29909;BME280;36247;51.952;6.146;2024-03-17T08:31:55;102104.19;;;10.51;100.00
29909;BME280;36247;51.952;6.146;2024-03-17T08:34:21;102100.84;;;10.84;100.00
29909;BME280;36247;51.952;6.146;2024-03-17T08:36:46;102099.28;;;10.89;100.00
29909;BME280;36247;51.952;6.146;2024-03-17T08:39:12;102086.25;;;10.69;100.00
29909;BME280;36247;51.952;6.146;2024-03-17T08:41:37;102087.31;;;10.74;100.00
29909;BME280;36247;51.952;6.146;2024-03-17T08:44:02;102086.22;;;10.68;100.00
29909;BME280;36247;51.952;6.146;2024-03-17T08:46:28;102084.31;;;10.91;100.00
29909;BME280;36247;51.952;6.146;2024-03-17T08:48:53;102083.06;;;10.80;100.00
29909;BME280;36247;51.952;6.146;2024-03-17T08:51:19;102082.31;;;10.84;100.00
29909;BME280;36247;51.952;6.146;2024-03-17T08:53:44;102081.13;;;11.30;100.00
29909;BME280;36247;51.952;6.146;2024-03-17T08:56:09;102089.19;;;11.33;100.00
29909;BME280;36247;51.952;6.146;2024-03-17T08:58:35;102087.06;;;11.21;100.00
29909;BME280;36247;51.952;6.146;2024-03-17T09:01:07;102088.66;;;11.16;100.00
29909;BME280;36247;51.952;6.146;2024-03-17T09:03:34;102077.81;;;11.08;100.00
29909;BME280;36247;51.952;6.146;2024-03-17T09:05:59;102077.06;;;11.13;100.00
29909;BME280;36247;51.952;6.146;2024-03-17T09:08:25;102078.81;;;11.14;100.00
29909;BME280;36247;51.952;6.146;2024-03-17T09:10:52;102083.19;;;10.83;100.00
29909;BME280;36247;51.952;6.146;2024-03-17T09:13:25;102075.81;;;11.01;100.00
29909;BME280;36247;51.952;6.146;2024-03-17T09:18:22;102078.81;;;11.14;100.00
29909;BME280;36247;51.952;6.146;2024-03-17T09:20:58;102081.25;;;11.06;100.00
29909;BME280;36247;51.952;6.146;2024-03-17T09:23:24;102090.72;;;10.98;100.00
29909;BME280;36247;51.952;6.146;2024-03-17T09:28:22;102075.69;;;10.98;100.00
29909;BME280;36247;51.952;6.146;2024-03-17T09:30:47;102071.28;;;10.99;100.00
29909;BME280;36247;51.952;6.146;2024-03-17T09:33:13;102059.41;;;11.15;100.00
29909;BME280;36247;51.952;6.146;2024-03-17T09:35:38;102057.16;;;10.98;100.00
29909;BME280;36247;51.952;6.146;2024-03-17T09:38:03;102063.22;;;11.23;100.00
29909;BME280;36247;51.952;6.146;2024-03-17T09:40:30;102066.94;;;11.29;100.00
29909;BME280;36247;51.952;6.146;2024-03-17T09:42:56;102063.56;;;11.05;100.00
29909;BME280;36247;51.952;6.146;2024-03-17T09:45:24;102067.19;;;11.08;100.00
29909;BME280;36247;51.952;6.146;2024-03-17T09:47:50;102063.69;;;11.09;100.00
29909;BME280;36247;51.952;6.146;2024-03-17T09:50:16;102060.38;;;11.17;100.00
29909;BME280;36247;51.952;6.146;2024-03-17T09:52:45;102059.75;;;10.97;100.00
29909;BME280;36247;51.952;6.146;2024-03-17T09:55:16;102061.09;;;11.11;100.00
29909;BME280;36247;51.952;6.146;2024-03-17T09:57:42;102062.16;;;11.18;100.00
29909;BME280;36247;51.952;6.146;2024-03-17T10:00:15;102062.44;;;11.27;100.00
29909;BME280;36247;51.952;6.146;2024-03-17T10:02:45;102059.19;;;11.07;100.00
29909;BME280;36247;51.952;6.146;2024-03-17T10:05:24;102063.75;;;10.84;100.00
29909;BME280;36247;51.952;6.146;2024-03-17T10:07:51;102066.63;;;10.90;100.00
29909;BME280;36247;51.952;6.146;2024-03-17T10:10:18;102058.44;;;10.84;100.00
29909;BME280;36247;51.952;6.146;2024-03-17T10:12:49;102063.44;;;10.74;100.00
29909;BME280;36247;51.952;6.146;2024-03-17T10:15:16;102054.56;;;10.72;100.00
29909;BME280;36247;51.952;6.146;2024-03-17T10:17:42;102055.91;;;10.87;100.00
29909;BME280;36247;51.952;6.146;2024-03-17T10:20:21;102060.16;;;10.82;100.00
29909;BME280;36247;51.952;6.146;2024-03-17T10:23:01;102057.59;;;10.85;100.00
29909;BME280;36247;51.952;6.146;2024-03-17T10:25:28;102064.53;;;10.80;100.00
29909;BME280;36247;51.952;6.146;2024-03-17T10:27:55;102074.09;;;10.76;100.00
29909;BME280;36247;51.952;6.146;2024-03-17T10:30:22;102070.47;;;10.72;100.00
29909;BME280;36247;51.952;6.146;2024-03-17T10:32:54;102066.00;;;10.71;100.00
29909;BME280;36247;51.952;6.146;2024-03-17T10:35:33;102059.56;;;10.90;100.00
29909;BME280;36247;51.952;6.146;2024-03-17T10:38:03;102061.50;;;10.96;100.00
29909;BME280;36247;51.952;6.146;2024-03-17T10:40:33;102066.50;;;11.14;100.00
29909;BME280;36247;51.952;6.146;2024-03-17T10:43:00;102067.59;;;10.93;100.00
29909;BME280;36247;51.952;6.146;2024-03-17T10:45:27;102059.03;;;11.02;100.00
29909;BME280;36247;51.952;6.146;2024-03-17T10:47:59;102057.47;;;11.09;100.00
29909;BME280;36247;51.952;6.146;2024-03-17T10:50:29;102058.00;;;11.26;100.00
29909;BME280;36247;51.952;6.146;2024-03-17T10:53:02;102055.97;;;11.17;100.00
29909;BME280;36247;51.952;6.146;2024-03-17T10:55:30;102054.69;;;11.04;100.00
29909;BME280;36247;51.952;6.146;2024-03-17T10:57:57;102053.63;;;11.28;100.00
29909;BME280;36247;51.952;6.146;2024-03-17T11:00:26;102046.34;;;11.21;100.00
29909;BME280;36247;51.952;6.146;2024-03-17T11:02:54;102038.28;;;11.46;100.00
29909;BME280;36247;51.952;6.146;2024-03-17T11:05:28;102041.63;;;11.39;100.00
29909;BME280;36247;51.952;6.146;2024-03-17T11:07:59;102039.22;;;11.80;100.00
29909;BME280;36247;51.952;6.146;2024-03-17T11:10:30;102038.81;;;11.65;100.00
29909;BME280;36247;51.952;6.146;2024-03-17T11:12:58;102039.41;;;11.87;100.00
29909;BME280;36247;51.952;6.146;2024-03-17T11:17:53;102044.34;;;12.38;100.00
29909;BME280;36247;51.952;6.146;2024-03-17T11:20:26;102036.13;;;12.27;100.00
29909;BME280;36247;51.952;6.146;2024-03-17T11:23:02;102038.00;;;12.33;100.00
29909;BME280;36247;51.952;6.146;2024-03-17T11:28:08;102035.38;;;12.34;100.00
29909;BME280;36247;51.952;6.146;2024-03-17T11:38:57;102038.66;;;12.58;100.00
29909;BME280;36247;51.952;6.146;2024-03-17T11:41:37;102033.13;;;12.50;100.00
29909;BME280;36247;51.952;6.146;2024-03-17T11:46:42;102029.56;;;12.49;100.00
29909;BME280;36247;51.952;6.146;2024-03-17T11:49:33;102030.41;;;12.47;100.00
29909;BME280;36247;51.952;6.146;2024-03-17T11:52:01;102023.53;;;12.57;100.00
29909;BME280;36247;51.952;6.146;2024-03-17T11:54:32;102008.16;;;12.80;100.00
29909;BME280;36247;51.952;6.146;2024-03-17T11:57:03;102012.50;;;12.05;100.00
29909;BME280;36247;51.952;6.146;2024-03-17T11:59:29;102012.31;;;12.32;100.00
29909;BME280;36247;51.952;6.146;2024-03-17T12:01:55;102009.97;;;12.44;100.00
29909;BME280;36247;51.952;6.146;2024-03-17T12:04:22;102012.09;;;12.23;100.00
29909;BME280;36247;51.952;6.146;2024-03-17T12:06:50;102007.47;;;12.52;100.00
29909;BME280;36247;51.952;6.146;2024-03-17T12:09:19;102008.13;;;12.42;100.00
29909;BME280;36247;51.952;6.146;2024-03-17T12:12:01;102004.56;;;12.41;100.00
29909;BME280;36247;51.952;6.146;2024-03-17T12:14:28;101999.25;;;12.41;100.00
29909;BME280;36247;51.952;6.146;2024-03-17T12:16:59;102005.09;;;12.26;100.00
29909;BME280;36247;51.952;6.146;2024-03-17T12:19:25;102000.19;;;12.43;100.00
29909;BME280;36247;51.952;6.146;2024-03-17T12:21:53;101991.03;;;12.30;100.00
29909;BME280;36247;51.952;6.146;2024-03-17T12:24:21;101989.09;;;12.25;100.00
29909;BME280;36247;51.952;6.146;2024-03-17T12:26:47;101982.97;;;12.64;100.00
29909;BME280;36247;51.952;6.146;2024-03-17T12:29:33;101981.53;;;12.78;100.00
29909;BME280;36247;51.952;6.146;2024-03-17T12:32:05;101976.91;;;12.69;100.00
29909;BME280;36247;51.952;6.146;2024-03-17T12:34:32;101978.66;;;12.69;100.00
29909;BME280;36247;51.952;6.146;2024-03-17T12:36:58;101975.94;;;12.66;100.00
29909;BME280;36247;51.952;6.146;2024-03-17T12:39:26;101965.50;;;12.75;100.00
29909;BME280;36247;51.952;6.146;2024-03-17T12:42:09;101952.38;;;12.83;100.00
29909;BME280;36247;51.952;6.146;2024-03-17T12:44:37;101953.34;;;12.86;100.00
29909;BME280;36247;51.952;6.146;2024-03-17T12:47:04;101948.31;;;12.99;100.00
29909;BME280;36247;51.952;6.146;2024-03-17T12:49:32;101949.28;;;13.04;100.00
29909;BME280;36247;51.952;6.146;2024-03-17T12:52:00;101948.13;;;12.91;100.00
29909;BME280;36247;51.952;6.146;2024-03-17T12:54:27;101943.47;;;12.81;100.00
29909;BME280;36247;51.952;6.146;2024-03-17T12:57:08;101942.72;;;12.88;100.00
29909;BME280;36247;51.952;6.146;2024-03-17T12:59:52;101941.00;;;12.88;100.00
29909;BME280;36247;51.952;6.146;2024-03-17T13:02:43;101928.50;;;12.86;100.00
29909;BME280;36247;51.952;6.146;2024-03-17T13:05:19;101927.97;;;13.02;100.00
29909;BME280;36247;51.952;6.146;2024-03-17T13:07:46;101924.72;;;13.16;100.00